Terminal Aerodrome Forecast
Issued by NWS

Home | Current Version | Previous Version | Text Only | Print | Product List | Glossary On
Versions: 1 2 3 4 5 6 7 8 9 10 11 12 13
747
FTUS46 KSEW 031135
TAFOLM
TAF
KOLM 031135Z 0312/0412 22008KT P6SM FEW070
     FM031400 21007KT P6SM SCT025 BKN035
     FM032200 21010KT P6SM VCSH BKN022 OVC040
     FM040300 18009KT 5SM -RA BR BKN025 OVC040=

USA.gov is the U.S. government's official web portal to all federal, state and local government web resources and services.